createdAt,value
2018-11-10T00:02:30.475Z,38.50
2018-11-10T00:05:06.703Z,37.03
2018-11-10T00:07:42.239Z,39.92
2018-11-10T00:10:18.371Z,37.73
2018-11-10T00:12:53.822Z,40.35
2018-11-10T00:15:29.224Z,39.60
2018-11-10T00:18:04.753Z,39.95
2018-11-10T00:20:40.391Z,39.53
2018-11-10T00:23:15.751Z,41.40
2018-11-10T00:25:51.178Z,40.90
2018-11-10T00:28:26.606Z,42.25
2018-11-10T00:31:02.301Z,38.55
2018-11-10T00:33:37.814Z,37.13
2018-11-10T00:36:13.277Z,39.42
2018-11-10T00:38:48.761Z,37.53
2018-11-10T00:41:24.264Z,37.60
2018-11-10T00:43:59.732Z,37.70
2018-11-10T00:46:35.264Z,39.05
2018-11-10T00:49:10.590Z,40.67
2018-11-10T00:51:45.954Z,38.42
2018-11-10T00:54:21.494Z,37.90
2018-11-10T00:56:56.880Z,41.73
2018-11-10T00:59:32.240Z,39.38
2018-11-10T01:02:07.513Z,38.73
2018-11-10T01:04:42.864Z,42.98
2018-11-10T01:07:18.075Z,41.05
2018-11-10T01:09:53.540Z,40.78
2018-11-10T01:12:28.782Z,40.25
2018-11-10T01:15:04.197Z,38.50
2018-11-10T01:17:39.851Z,38.50
2018-11-10T01:20:15.484Z,38.30
2018-11-10T01:22:51.053Z,38.10
2018-11-10T01:25:26.681Z,39.88
2018-11-10T01:28:02.445Z,41.15
2018-11-10T01:30:37.804Z,39.73
2018-11-10T01:33:13.330Z,40.28
2018-11-10T01:35:48.990Z,39.05
2018-11-10T01:38:24.563Z,41.25
2018-11-10T01:40:59.852Z,40.20
2018-11-10T01:43:35.530Z,37.75
2018-11-10T01:46:10.940Z,41.20
2018-11-10T01:48:46.427Z,38.85
2018-11-10T01:51:22.053Z,36.40
2018-11-10T01:53:57.516Z,39.95
2018-11-10T01:56:32.823Z,39.63
2018-11-10T01:59:08.213Z,38.67
2018-11-10T02:01:43.453Z,37.10
2018-11-10T02:04:18.773Z,39.20
2018-11-10T02:06:54.281Z,39.92
2018-11-10T02:09:29.964Z,39.48
2018-11-10T02:12:05.571Z,37.88
2018-11-10T02:14:40.961Z,39.45
2018-11-10T02:17:16.173Z,39.35
2018-11-10T02:19:51.512Z,38.55
2018-11-10T02:22:27.061Z,39.20
2018-11-10T02:25:02.380Z,39.15
2018-11-10T02:27:37.950Z,40.80
2018-11-10T02:30:13.545Z,38.90
2018-11-10T02:32:48.920Z,40.70
2018-11-10T02:35:24.172Z,38.95
2018-11-10T02:37:59.555Z,41.60
2018-11-10T02:40:34.976Z,41.15
2018-11-10T02:43:10.302Z,38.30
2018-11-10T02:45:45.631Z,40.48
2018-11-10T02:48:21.136Z,40.23
2018-11-10T02:50:56.651Z,38.15
2018-11-10T02:53:32.004Z,38.02
2018-11-10T02:56:07.424Z,41.75
2018-11-10T02:58:42.993Z,41.85
2018-11-10T03:01:18.381Z,40.10
2018-11-10T03:03:53.759Z,39.80
2018-11-10T03:06:29.006Z,40.78
2018-11-10T03:09:05.252Z,36.15
2018-11-10T03:11:40.901Z,40.95
2018-11-10T03:14:16.364Z,39.23
2018-11-10T03:16:51.773Z,38.48
2018-11-10T03:19:27.110Z,39.85
2018-11-10T03:22:02.247Z,39.73
2018-11-10T03:24:37.643Z,40.05
2018-11-10T03:27:13.375Z,36.98
2018-11-10T03:29:48.838Z,39.35
2018-11-10T03:32:24.322Z,41.25
2018-11-10T03:34:59.579Z,40.33
2018-11-10T03:37:34.811Z,38.80
2018-11-10T03:40:11.428Z,38.35
2018-11-10T03:42:47.564Z,36.73
2018-11-10T03:45:23.101Z,37.85
2018-11-10T03:47:58.702Z,40.35
2018-11-10T03:50:34.291Z,37.55
2018-11-10T03:53:09.648Z,42.93
2018-11-10T03:55:44.861Z,39.90
2018-11-10T03:58:20.402Z,38.70
2018-11-10T04:00:55.654Z,38.10
2018-11-10T04:03:31.204Z,35.20
2018-11-10T04:06:06.762Z,41.60
2018-11-10T04:08:42.211Z,38.88
2018-11-10T04:11:17.665Z,37.38
2018-11-10T04:13:53.184Z,34.90
2018-11-10T04:16:28.737Z,39.75
2018-11-10T04:19:04.282Z,38.65
2018-11-10T04:21:39.806Z,41.80
2018-11-10T04:24:15.404Z,37.73
2018-11-10T04:26:50.814Z,36.58
2018-11-10T04:29:26.164Z,35.92
2018-11-10T04:32:01.672Z,35.78
2018-11-10T04:34:37.062Z,35.92
2018-11-10T04:37:12.461Z,38.80
2018-11-10T04:39:47.864Z,34.95
2018-11-10T04:42:23.261Z,36.13
2018-11-10T04:44:58.721Z,36.35
2018-11-10T04:47:34.081Z,35.88
2018-11-10T04:50:10.834Z,34.75
2018-11-10T04:52:46.023Z,34.73
2018-11-10T04:55:21.410Z,36.33
2018-11-10T04:57:56.951Z,32.38
2018-11-10T05:00:32.431Z,36.42
2018-11-10T05:03:07.841Z,34.48
2018-11-10T05:05:43.432Z,33.67
2018-11-10T05:08:18.621Z,33.33
2018-11-10T05:10:53.971Z,32.30
2018-11-10T05:13:29.527Z,35.13
2018-11-10T05:16:04.881Z,32.55
2018-11-10T05:18:40.293Z,33.00
2018-11-10T05:21:16.346Z,34.20
2018-11-10T05:23:51.771Z,36.50
2018-11-10T05:26:27.264Z,32.53
2018-11-10T05:29:02.756Z,32.17
2018-11-10T05:31:38.261Z,32.95
2018-11-10T05:34:13.464Z,35.38
2018-11-10T05:36:49.301Z,29.92
2018-11-10T05:39:24.904Z,34.45
2018-11-10T05:42:00.591Z,31.40
2018-11-10T05:44:36.021Z,30.37
2018-11-10T05:47:11.201Z,31.80
2018-11-10T05:49:46.620Z,36.77
2018-11-10T05:52:22.156Z,31.45
2018-11-10T05:54:57.903Z,30.85
2018-11-10T05:57:33.603Z,31.87
2018-11-10T06:00:11.004Z,32.08
2018-11-10T06:02:46.412Z,34.48
2018-11-10T06:05:21.959Z,31.85
2018-11-10T06:07:57.644Z,30.52
2018-11-10T06:10:33.131Z,34.30
2018-11-10T06:13:08.738Z,35.25
2018-11-10T06:15:44.351Z,33.50
2018-11-10T06:18:19.550Z,32.83
2018-11-10T06:20:55.056Z,31.48
2018-11-10T06:23:30.673Z,34.03
2018-11-10T06:26:06.102Z,32.35
2018-11-10T06:28:41.440Z,32.53
2018-11-10T06:31:17.073Z,33.02
2018-11-10T06:33:52.407Z,31.42
2018-11-10T06:36:28.043Z,35.13
2018-11-10T06:39:03.883Z,31.50
2018-11-10T06:41:39.293Z,27.87
2018-11-10T06:44:14.763Z,32.65
2018-11-10T06:46:50.464Z,30.20
2018-11-10T06:49:25.893Z,31.77
2018-11-10T06:52:01.561Z,28.92
2018-11-10T06:54:37.133Z,29.80
2018-11-10T06:57:12.473Z,31.57
2018-11-10T06:59:47.904Z,28.92
2018-11-10T07:02:23.299Z,30.00
2018-11-10T07:04:58.733Z,31.75
2018-11-10T07:07:33.876Z,32.10
2018-11-10T07:10:09.659Z,29.77
2018-11-10T07:12:45.000Z,30.92
2018-11-10T07:15:20.563Z,29.70
2018-11-10T07:17:56.012Z,32.83
2018-11-10T07:20:31.738Z,32.30
2018-11-10T07:23:06.927Z,35.45
2018-11-10T07:25:42.025Z,30.40
2018-11-10T07:28:17.363Z,34.20
2018-11-10T07:30:52.625Z,32.75
2018-11-10T07:33:27.795Z,32.05
2018-11-10T07:36:03.191Z,32.98
2018-11-10T07:38:38.505Z,32.80
2018-11-10T07:41:13.868Z,30.10
2018-11-10T07:43:49.247Z,32.40
2018-11-10T07:46:24.560Z,33.50
2018-11-10T07:48:59.824Z,33.13
2018-11-10T07:51:35.203Z,30.10
2018-11-10T07:54:10.596Z,32.10
2018-11-10T07:56:45.901Z,30.27
2018-11-10T07:59:21.123Z,31.05
2018-11-10T08:01:56.738Z,31.27
2018-11-10T08:04:32.232Z,30.60
2018-11-10T08:07:07.715Z,30.95
2018-11-10T08:09:42.993Z,28.15
2018-11-10T08:12:18.290Z,29.02
2018-11-10T08:14:53.803Z,29.92
2018-11-10T08:17:29.172Z,30.50
2018-11-10T08:20:04.726Z,29.60
2018-11-10T08:22:40.132Z,29.65
2018-11-10T08:25:16.335Z,28.65
2018-11-10T08:27:51.961Z,29.50
2018-11-10T08:30:27.427Z,28.95
2018-11-10T08:33:03.183Z,27.93
2018-11-10T08:35:38.900Z,28.30
2018-11-10T08:38:14.501Z,29.40
2018-11-10T08:40:49.929Z,26.90
2018-11-10T08:43:25.144Z,26.87
2018-11-10T08:46:00.588Z,25.50
2018-11-10T08:48:36.162Z,27.10
2018-11-10T08:51:11.844Z,25.77
2018-11-10T08:53:47.274Z,25.80
2018-11-10T08:56:22.541Z,25.75
2018-11-10T08:58:57.900Z,24.57
2018-11-10T09:01:33.254Z,24.43
2018-11-10T09:04:08.605Z,23.67
2018-11-10T09:06:43.958Z,22.10
2018-11-10T09:09:19.301Z,22.40
2018-11-10T09:11:55.343Z,24.87
2018-11-10T09:14:30.905Z,22.52
2018-11-10T09:17:06.606Z,24.02
2018-11-10T09:19:45.730Z,22.87
2018-11-10T09:22:20.952Z,23.60
2018-11-10T09:24:56.236Z,21.50
2018-11-10T09:27:31.666Z,23.20
2018-11-10T09:30:07.695Z,21.45
2018-11-10T09:32:43.330Z,22.35
2018-11-10T09:35:18.869Z,22.48
2018-11-10T09:37:54.193Z,24.27
2018-11-10T09:40:29.721Z,20.80
2018-11-10T09:43:05.475Z,21.17
2018-11-10T09:45:40.641Z,21.35
2018-11-10T09:48:16.085Z,20.25
2018-11-10T09:50:51.512Z,21.25
2018-11-10T09:53:26.754Z,21.50
2018-11-10T09:56:02.062Z,19.80
2018-11-10T09:58:37.319Z,18.12
2018-11-10T10:01:12.830Z,18.73
2018-11-10T10:03:48.243Z,17.60
2018-11-10T10:06:23.649Z,19.52
2018-11-10T10:08:59.287Z,17.55
2018-11-10T10:11:34.711Z,17.57
2018-11-10T10:14:10.705Z,16.05
2018-11-10T10:16:46.015Z,18.15
2018-11-10T10:19:21.384Z,17.52
2018-11-10T10:21:57.094Z,20.10
2018-11-10T10:24:32.833Z,18.67
2018-11-10T10:27:08.221Z,17.75
2018-11-10T10:29:43.700Z,18.50
2018-11-10T10:32:19.124Z,17.60
2018-11-10T10:34:54.502Z,18.40
2018-11-10T10:37:29.565Z,16.85
2018-11-10T10:40:05.987Z,17.42
2018-11-10T10:42:41.298Z,15.35
2018-11-10T10:45:21.142Z,13.55
2018-11-10T10:47:56.739Z,14.83
2018-11-10T10:50:32.130Z,15.80
2018-11-10T10:53:07.557Z,14.93
2018-11-10T10:55:43.248Z,15.20
2018-11-10T10:58:18.688Z,14.25
2018-11-10T11:00:59.094Z,13.98
2018-11-10T11:03:39.550Z,13.20
2018-11-10T11:06:15.064Z,14.33
2018-11-10T11:08:50.478Z,13.65
2018-11-10T11:11:25.803Z,11.85
2018-11-10T11:14:01.462Z,12.50
2018-11-10T11:16:36.823Z,12.50
2018-11-10T11:19:12.255Z,12.10
2018-11-10T11:21:47.803Z,11.45
2018-11-10T11:24:23.045Z,12.75
2018-11-10T11:26:58.381Z,13.68
2018-11-10T11:29:33.756Z,13.65
2018-11-10T11:32:09.041Z,11.03
2018-11-10T11:34:44.425Z,11.60
2018-11-10T11:37:19.830Z,12.73
2018-11-10T11:39:55.080Z,12.07
2018-11-10T11:42:30.544Z,11.73
2018-11-10T11:45:06.383Z,11.40
2018-11-10T11:47:42.314Z,11.85
2018-11-10T11:50:17.717Z,13.00
2018-11-10T11:52:53.120Z,11.45
2018-11-10T11:55:28.871Z,11.93
2018-11-10T11:58:04.638Z,11.70
2018-11-10T12:00:39.873Z,9.90
2018-11-10T12:03:15.160Z,12.00
2018-11-10T12:05:50.589Z,11.22
2018-11-10T12:08:26.004Z,10.98
2018-11-10T12:11:01.331Z,12.30
2018-11-10T12:13:36.963Z,12.10
2018-11-10T12:16:12.444Z,11.40
2018-11-10T12:18:47.862Z,9.83
2018-11-10T12:21:23.423Z,10.48
2018-11-10T12:23:58.873Z,9.73
2018-11-10T12:26:34.509Z,13.32
2018-11-10T12:29:09.822Z,11.28
2018-11-10T12:31:45.252Z,10.60
2018-11-10T12:34:20.720Z,9.98
2018-11-10T12:36:56.277Z,10.50
2018-11-10T12:39:31.745Z,10.40
2018-11-10T12:42:07.395Z,9.63
2018-11-10T12:44:42.690Z,9.20
2018-11-10T12:47:18.105Z,8.70
2018-11-10T12:49:53.319Z,8.93
2018-11-10T12:52:28.676Z,8.88
2018-11-10T12:55:04.081Z,9.53
2018-11-10T12:57:39.703Z,9.45
2018-11-10T13:00:16.574Z,9.03
2018-11-10T13:02:52.183Z,8.00
2018-11-10T13:05:27.493Z,9.20
2018-11-10T13:08:03.022Z,8.88
2018-11-10T13:10:38.575Z,8.85
2018-11-10T13:13:13.921Z,8.45
2018-11-10T13:15:49.143Z,9.23
2018-11-10T13:18:24.493Z,10.13
2018-11-10T13:20:59.970Z,8.88
2018-11-10T13:23:35.553Z,9.28
2018-11-10T13:26:10.980Z,9.70
2018-11-10T13:28:46.491Z,10.10
2018-11-10T13:31:22.106Z,10.35
2018-11-10T13:33:57.591Z,10.18
2018-11-10T13:36:32.991Z,9.13
2018-11-10T13:39:09.407Z,10.35
2018-11-10T13:41:44.855Z,10.18
2018-11-10T13:44:20.432Z,10.60
2018-11-10T13:46:55.885Z,10.50
2018-11-10T13:49:31.550Z,11.05
2018-11-10T13:52:07.178Z,11.48
2018-11-10T13:54:42.254Z,11.20
2018-11-10T13:57:17.660Z,13.18
2018-11-10T13:59:53.133Z,10.72
2018-11-10T14:02:28.561Z,12.35
2018-11-10T14:05:04.313Z,12.33
2018-11-10T14:07:40.089Z,10.58
2018-11-10T14:10:16.269Z,12.68
2018-11-10T14:12:51.814Z,12.50
2018-11-10T14:15:27.241Z,13.18
2018-11-10T14:18:02.914Z,12.23
2018-11-10T14:20:38.287Z,13.28
2018-11-10T14:23:13.744Z,12.30
2018-11-10T14:25:49.099Z,12.55
2018-11-10T14:28:24.683Z,12.80
2018-11-10T14:30:59.930Z,13.30
2018-11-10T14:33:35.320Z,13.80
2018-11-10T14:36:10.630Z,14.03
2018-11-10T14:38:46.163Z,15.55
2018-11-10T14:41:21.520Z,14.25
2018-11-10T14:43:57.078Z,14.58
2018-11-10T14:46:32.455Z,14.63
2018-11-10T14:49:08.193Z,16.40
2018-11-10T14:51:43.964Z,14.55
2018-11-10T14:54:19.522Z,14.95
2018-11-10T14:56:54.894Z,14.05
2018-11-10T14:59:30.393Z,13.62
2018-11-10T15:02:06.178Z,14.05
2018-11-10T15:04:41.707Z,13.08
2018-11-10T15:07:17.163Z,13.00
2018-11-10T15:09:52.358Z,11.53
2018-11-10T15:12:27.837Z,12.15
2018-11-10T15:15:03.153Z,11.78
2018-11-10T15:17:39.029Z,12.60
2018-11-10T15:20:15.663Z,12.65
2018-11-10T15:22:51.277Z,13.83
2018-11-10T15:25:26.962Z,12.28
2018-11-10T15:28:02.207Z,12.05
2018-11-10T15:30:37.485Z,11.65
2018-11-10T15:33:12.983Z,11.95
2018-11-10T15:35:48.763Z,11.90
2018-11-10T15:38:24.073Z,11.28
2018-11-10T15:40:59.513Z,11.40
2018-11-10T15:43:34.923Z,12.70
2018-11-10T15:46:10.563Z,13.50
2018-11-10T15:48:45.994Z,12.15
2018-11-10T15:51:21.390Z,12.43
2018-11-10T15:53:56.634Z,13.18
2018-11-10T15:56:31.985Z,11.08
2018-11-10T15:59:07.572Z,12.70
2018-11-10T16:01:42.961Z,11.88
2018-11-10T16:04:18.430Z,11.50
2018-11-10T16:06:53.703Z,13.93
2018-11-10T16:09:29.133Z,12.90
2018-11-10T16:12:04.449Z,14.23
2018-11-10T16:14:39.811Z,12.60
2018-11-10T16:17:15.268Z,12.53
2018-11-10T16:19:50.591Z,13.65
2018-11-10T16:22:25.934Z,15.03
2018-11-10T16:25:01.604Z,14.38
2018-11-10T16:27:36.753Z,12.78
2018-11-10T16:30:14.765Z,13.30
2018-11-10T16:32:50.580Z,14.28
2018-11-10T16:35:25.910Z,14.70
2018-11-10T16:38:01.234Z,15.10
2018-11-10T16:40:36.602Z,16.40
2018-11-10T16:43:11.860Z,15.85
2018-11-10T16:45:47.142Z,15.53
2018-11-10T16:48:22.394Z,13.75
2018-11-10T16:50:57.912Z,15.10
2018-11-10T16:53:33.283Z,14.87
2018-11-10T16:56:08.721Z,16.00
2018-11-10T16:58:43.940Z,15.65
2018-11-10T17:01:19.724Z,16.32
2018-11-10T17:03:55.133Z,16.95
2018-11-10T17:06:30.669Z,17.32
2018-11-10T17:09:08.201Z,17.85
2018-11-10T17:11:43.441Z,20.00
2018-11-10T17:14:18.721Z,19.23
2018-11-10T17:16:54.003Z,18.48
2018-11-10T17:19:29.472Z,20.43
2018-11-10T17:22:05.340Z,21.40
2018-11-10T17:24:40.656Z,20.55
2018-11-10T17:27:16.531Z,22.67
2018-11-10T17:29:51.664Z,23.60
2018-11-10T17:32:27.052Z,21.90
2018-11-10T17:35:02.460Z,20.95
2018-11-10T17:37:38.111Z,23.32
2018-11-10T17:40:14.397Z,21.60
2018-11-10T17:42:49.725Z,22.32
2018-11-10T17:45:25.184Z,23.55
2018-11-10T17:48:00.669Z,23.07
2018-11-10T17:50:36.261Z,26.33
2018-11-10T17:53:11.615Z,25.50
2018-11-10T17:55:47.205Z,24.10
2018-11-10T17:58:22.767Z,22.60
2018-11-10T18:00:58.245Z,24.32
2018-11-10T18:03:33.776Z,25.52
2018-11-10T18:06:09.116Z,24.57
2018-11-10T18:08:44.523Z,24.82
2018-11-10T18:11:19.921Z,24.45
2018-11-10T18:13:55.376Z,24.55
2018-11-10T18:16:30.984Z,27.73
2018-11-10T18:19:06.870Z,26.93
2018-11-10T18:21:42.571Z,24.80
2018-11-10T18:24:18.023Z,24.63
2018-11-10T18:26:53.510Z,25.17
2018-11-10T18:29:29.067Z,25.65
2018-11-10T18:32:05.185Z,26.48
2018-11-10T18:34:40.618Z,25.80
2018-11-10T18:37:16.387Z,26.20
2018-11-10T18:39:52.246Z,26.68
2018-11-10T18:42:34.427Z,26.10
2018-11-10T18:45:10.920Z,25.43
2018-11-10T18:47:46.587Z,25.82
2018-11-10T18:50:22.020Z,26.40
2018-11-10T18:52:57.617Z,26.40
2018-11-10T18:55:33.222Z,26.10
2018-11-10T18:58:08.903Z,27.32
2018-11-10T19:00:44.622Z,26.60
2018-11-10T19:03:20.259Z,27.10
2018-11-10T19:05:55.852Z,24.77
2018-11-10T19:08:31.323Z,25.23
2018-11-10T19:11:06.792Z,25.27
2018-11-10T19:13:42.450Z,26.52
2018-11-10T19:16:17.919Z,26.62
2018-11-10T19:18:53.254Z,27.02
2018-11-10T19:21:28.992Z,25.50
2018-11-10T19:24:04.510Z,26.33
2018-11-10T19:26:40.083Z,28.40
2018-11-10T19:29:15.570Z,26.10
2018-11-10T19:31:51.269Z,27.65
2018-11-10T19:34:27.685Z,27.87
2018-11-10T19:37:03.382Z,29.60
2018-11-10T19:39:38.912Z,27.50
2018-11-10T19:42:16.074Z,29.07
2018-11-10T19:44:57.974Z,26.90
2018-11-10T19:47:33.432Z,28.50
2018-11-10T19:50:09.311Z,26.23
2018-11-10T19:52:44.938Z,26.23
2018-11-10T19:55:20.455Z,26.30
2018-11-10T19:57:55.795Z,25.40
2018-11-10T20:00:31.324Z,23.80
2018-11-10T20:03:07.034Z,26.20
2018-11-10T20:05:42.384Z,27.82
2018-11-10T20:08:17.870Z,24.67
2018-11-10T20:10:53.400Z,27.25
2018-11-10T20:13:28.809Z,26.10
2018-11-10T20:16:04.242Z,27.35
2018-11-10T20:18:39.942Z,25.88
2018-11-10T20:21:15.462Z,26.87
2018-11-10T20:23:50.791Z,26.20
2018-11-10T20:26:26.260Z,23.73
2018-11-10T20:29:01.564Z,24.72
2018-11-10T20:31:37.054Z,22.82
2018-11-10T20:34:12.464Z,23.30
2018-11-10T20:36:48.024Z,24.12
2018-11-10T20:40:26.660Z,25.57
2018-11-10T20:43:02.379Z,25.15
2018-11-10T20:45:37.908Z,25.23
2018-11-10T20:48:13.061Z,24.35
2018-11-10T20:50:48.506Z,22.90
2018-11-10T20:53:23.942Z,23.50
2018-11-10T20:55:59.164Z,23.22
2018-11-10T20:58:34.509Z,22.25
2018-11-10T21:01:09.991Z,23.95
2018-11-10T21:03:45.375Z,22.80
2018-11-10T21:06:20.694Z,22.35
2018-11-10T21:08:56.171Z,22.05
2018-11-10T21:11:31.824Z,23.38
2018-11-10T21:14:08.242Z,21.95
2018-11-10T21:16:43.862Z,22.10
2018-11-10T21:19:19.365Z,21.87
2018-11-10T21:21:54.954Z,21.68
2018-11-10T21:24:30.293Z,20.70
2018-11-10T21:27:05.773Z,19.45
2018-11-10T21:29:41.347Z,20.30
2018-11-10T21:32:16.867Z,19.82
2018-11-10T21:34:52.605Z,19.12
2018-11-10T21:37:27.985Z,19.73
2018-11-10T21:40:03.394Z,19.17
2018-11-10T21:42:38.614Z,20.27
2018-11-10T21:45:14.591Z,18.52
2018-11-10T21:47:49.813Z,18.15
2018-11-10T21:50:25.043Z,17.40
2018-11-10T21:53:00.515Z,19.75
2018-11-10T21:55:35.880Z,17.55
2018-11-10T21:58:11.380Z,19.57
2018-11-10T22:00:46.839Z,19.80
2018-11-10T22:03:22.304Z,18.80
2018-11-10T22:05:57.828Z,17.40
2018-11-10T22:08:33.241Z,17.62
2018-11-10T22:11:08.443Z,15.32
2018-11-10T22:13:43.753Z,16.27
2018-11-10T22:16:18.915Z,16.17
2018-11-10T22:18:54.413Z,17.40
2018-11-10T22:21:29.865Z,17.30
2018-11-10T22:24:05.306Z,19.15
2018-11-10T22:26:40.761Z,17.10
2018-11-10T22:29:16.551Z,16.30
2018-11-10T22:31:52.381Z,16.20
2018-11-10T22:34:27.914Z,18.57
2018-11-10T22:37:03.314Z,14.75
2018-11-10T22:39:38.653Z,14.10
2018-11-10T22:42:14.226Z,14.20
2018-11-10T22:44:49.734Z,14.73
2018-11-10T22:47:25.436Z,15.63
2018-11-10T22:50:00.916Z,15.55
2018-11-10T22:52:36.565Z,15.28
2018-11-10T22:55:12.018Z,15.05
2018-11-10T22:57:47.704Z,16.35
2018-11-10T23:00:25.896Z,15.85
2018-11-10T23:03:02.126Z,16.00
2018-11-10T23:05:37.502Z,14.98
2018-11-10T23:08:12.874Z,14.93
2018-11-10T23:10:48.403Z,15.90
2018-11-10T23:13:23.674Z,15.70
2018-11-10T23:15:59.062Z,15.05
2018-11-10T23:18:34.641Z,16.75
2018-11-10T23:21:10.270Z,15.68
2018-11-10T23:23:46.054Z,15.23
2018-11-10T23:26:21.685Z,14.05
2018-11-10T23:28:57.165Z,16.35
2018-11-10T23:31:32.865Z,17.25
2018-11-10T23:34:08.686Z,15.65
2018-11-10T23:36:44.372Z,14.65
2018-11-10T23:39:20.373Z,17.05
2018-11-10T23:41:55.874Z,16.45
2018-11-10T23:44:31.614Z,15.60
2018-11-10T23:47:06.981Z,13.60
2018-11-10T23:49:42.431Z,15.03
2018-11-10T23:52:18.051Z,14.03
2018-11-10T23:54:53.444Z,14.50
2018-11-10T23:57:28.852Z,15.23
